Time;durP1;ratioP1;P1;durP2;ratioP2;P2;SDS_P1;SDS_P2;PMS_P1;PMS_P2;Temp;Humidity;BMP_temperature;BMP_pressure;BME280_temperature;BME280_humidity;BME280_pressure;Samples;Min_cycle;Max_cycle;Signal;HPM_P1;HPM_P2
2023/06/04 00:01:57;;;;;;;3.10;1.20;;;;;;;11.27;53.75;101402.94;5016265;28;20599;-83
2023/06/04 00:04:26;;;;;;;2.63;1.30;;;;;;;11.22;54.22;101399.66;5023424;28;20212;-84
2023/06/04 00:06:52;;;;;;;1.63;1.33;;;;;;;11.18;54.35;101390.97;5001339;28;20674;-84
2023/06/04 00:09:19;;;;;;;2.57;1.30;;;;;;;11.13;54.16;101395.66;5005635;28;20231;-84
2023/06/04 00:11:46;;;;;;;1.57;1.30;;;;;;;11.03;54.22;101392.66;5000894;28;20771;-84
2023/06/04 00:14:13;;;;;;;2.07;1.10;;;;;;;10.98;55.16;101393.81;5015607;28;20199;-84
2023/06/04 00:16:40;;;;;;;2.43;1.30;;;;;;;10.96;55.45;101391.25;5002947;28;20221;-84
2023/06/04 00:19:08;;;;;;;1.43;1.00;;;;;;;10.95;55.51;101404.66;5016973;28;20213;-84
2023/06/04 00:21:35;;;;;;;1.63;1.20;;;;;;;10.89;55.17;101397.84;5017201;28;20742;-84
2023/06/04 00:24:02;;;;;;;1.53;1.20;;;;;;;10.77;55.39;101401.16;5015965;28;20667;-83
2023/06/04 00:26:29;;;;;;;1.77;1.23;;;;;;;10.70;55.71;101399.75;4997551;28;20212;-84
2023/06/04 00:28:55;;;;;;;1.07;0.97;;;;;;;10.66;55.98;101392.84;5016654;28;20239;-85
2023/06/04 00:31:22;;;;;;;2.03;1.00;;;;;;;10.59;55.89;101394.09;5023534;28;20234;-86
2023/06/04 00:33:49;;;;;;;1.63;1.10;;;;;;;10.54;56.01;101393.50;5022288;28;20211;-85
2023/06/04 00:36:18;;;;;;;1.90;1.40;;;;;;;10.51;56.38;101404.31;5023403;28;20278;-85
2023/06/04 00:38:45;;;;;;;2.03;1.13;;;;;;;10.47;56.78;101397.41;5020533;28;20238;-85
2023/06/04 00:41:12;;;;;;;1.63;1.30;;;;;;;10.44;56.92;101398.41;5018817;28;20293;-84
2023/06/04 00:43:38;;;;;;;2.00;1.10;;;;;;;10.44;57.04;101401.94;5014786;28;20211;-84
2023/06/04 00:46:07;;;;;;;1.80;1.20;;;;;;;10.37;56.55;101392.56;5016577;28;20302;-84
2023/06/04 00:48:33;;;;;;;1.90;1.20;;;;;;;10.28;56.65;101390.34;5017047;28;20210;-85
2023/06/04 00:51:01;;;;;;;1.23;1.07;;;;;;;10.24;57.20;101395.91;5016635;28;20693;-85
2023/06/04 00:53:29;;;;;;;2.93;1.30;;;;;;;10.21;57.39;101398.75;5019461;28;20203;-83
2023/06/04 00:55:55;;;;;;;1.90;1.27;;;;;;;10.14;57.17;101395.47;5020571;28;20206;-84
2023/06/04 00:58:24;;;;;;;2.23;1.27;;;;;;;10.07;57.45;101399.38;5018051;28;20213;-84
2023/06/04 01:00:54;;;;;;;2.43;1.23;;;;;;;10.01;58.02;101397.03;5017073;28;20593;-86
2023/06/04 01:03:29;;;;;;;2.00;1.10;;;;;;;10.00;58.33;101392.63;5014307;28;20191;-85
2023/06/04 01:06:01;;;;;;;1.93;1.20;;;;;;;9.99;57.80;101404.22;5013994;28;20201;-84
2023/06/04 01:08:30;;;;;;;1.77;1.47;;;;;;;9.93;57.61;101399.19;5014138;28;20211;-84
2023/06/04 01:10:57;;;;;;;1.30;1.10;;;;;;;9.85;58.38;101394.25;5015359;28;20199;-83
2023/06/04 01:13:25;;;;;;;1.50;1.17;;;;;;;9.83;58.05;101400.59;5014406;28;20242;-84
2023/06/04 01:15:51;;;;;;;1.27;1.10;;;;;;;9.78;58.13;101392.81;5014560;28;20203;-83
2023/06/04 01:18:27;;;;;;;2.33;1.20;;;;;;;9.74;58.43;101392.09;5014133;28;20206;-84
2023/06/04 01:21:00;;;;;;;1.43;1.10;;;;;;;9.71;58.62;101396.69;5013975;28;20183;-84
2023/06/04 01:23:34;;;;;;;1.50;1.33;;;;;;;9.66;58.63;101394.28;5015034;28;20183;-84
2023/06/04 01:26:02;;;;;;;2.23;1.20;;;;;;;9.62;59.46;101382.06;5015600;28;20195;-83
2023/06/04 01:28:30;;;;;;;1.90;1.20;;;;;;;9.59;59.38;101384.84;5014585;28;20264;-85
2023/06/04 01:30:57;;;;;;;1.97;1.20;;;;;;;9.57;59.16;101385.84;5014417;28;20250;-84
2023/06/04 01:33:23;;;;;;;2.23;1.30;;;;;;;9.51;59.47;101386.13;5014487;28;20207;-84
2023/06/04 01:35:50;;;;;;;2.23;1.70;;;;;;;9.44;59.55;101382.91;5013796;28;20855;-83
2023/06/04 01:38:17;;;;;;;1.77;1.47;;;;;;;9.38;60.13;101384.06;5014112;28;20660;-84
2023/06/04 01:40:45;;;;;;;2.30;1.50;;;;;;;9.36;59.49;101379.75;5014322;28;20203;-83
2023/06/04 01:43:11;;;;;;;2.03;1.30;;;;;;;9.31;59.75;101376.47;5014885;28;20823;-83
2023/06/04 01:45:38;;;;;;;1.63;1.40;;;;;;;9.28;60.16;101382.78;5014344;28;20210;-83
2023/06/04 01:48:06;;;;;;;2.03;1.33;;;;;;;9.26;60.65;101381.97;5013805;28;20207;-85
2023/06/04 01:50:32;;;;;;;1.63;1.23;;;;;;;9.26;60.55;101368.69;5013082;28;20234;-83
2023/06/04 01:52:59;;;;;;;1.73;1.23;;;;;;;9.24;60.83;101385.63;5013870;28;20750;-84
2023/06/04 01:55:29;;;;;;;1.60;1.30;;;;;;;9.22;60.19;101383.06;5013840;28;20213;-85
2023/06/04 01:57:57;;;;;;;2.67;1.27;;;;;;;9.20;60.27;101374.28;5014974;28;20210;-84
2023/06/04 02:00:23;;;;;;;2.90;1.40;;;;;;;9.18;60.65;101385.91;5014824;28;20206;-84
2023/06/04 02:02:50;;;;;;;2.37;1.30;;;;;;;9.13;60.06;101378.19;5013646;28;20770;-84
2023/06/04 02:05:17;;;;;;;2.00;1.63;;;;;;;9.10;60.74;101374.78;5013782;28;20265;-83
2023/06/04 02:07:47;;;;;;;1.30;1.20;;;;;;;9.07;60.36;101382.91;5013687;28;20203;-82
2023/06/04 02:10:15;;;;;;;1.97;1.23;;;;;;;9.04;60.84;101386.53;5013196;28;20309;-84
2023/06/04 02:12:54;;;;;;;2.83;1.20;;;;;;;9.00;60.97;101377.84;5013622;28;20695;-84
2023/06/04 02:15:23;;;;;;;2.13;1.60;;;;;;;8.98;60.70;101384.16;5014823;28;20198;-84
2023/06/04 02:17:50;;;;;;;2.30;1.40;;;;;;;8.92;61.26;101389.75;5014230;28;20202;-84
2023/06/04 02:20:17;;;;;;;2.70;1.00;;;;;;;8.86;61.36;101385.59;5013562;28;20203;-84
2023/06/04 02:22:44;;;;;;;1.70;1.30;;;;;;;8.84;61.47;101383.91;5013257;28;20225;-84
2023/06/04 02:25:10;;;;;;;1.73;1.30;;;;;;;8.84;61.98;101383.91;5013880;28;20219;-84
2023/06/04 02:27:37;;;;;;;2.70;1.17;;;;;;;8.81;62.15;101387.56;5014065;28;20210;-85
2023/06/04 02:30:05;;;;;;;1.93;1.33;;;;;;;8.80;62.06;101383.19;5013528;28;20230;-85
2023/06/04 02:32:35;;;;;;;2.00;1.70;;;;;;;8.76;62.39;101381.63;5014634;28;20724;-84
2023/06/04 02:35:02;;;;;;;1.80;1.40;;;;;;;8.69;61.62;101386.31;5013657;28;20203;-84
2023/06/04 02:37:29;;;;;;;2.30;1.43;;;;;;;8.66;62.51;101377.63;5013360;28;20663;-84
2023/06/04 02:39:55;;;;;;;1.70;1.50;;;;;;;8.63;62.50;101383.06;5013214;28;20214;-84
2023/06/04 02:42:22;;;;;;;2.53;1.30;;;;;;;8.62;62.31;101386.66;5013267;28;20237;-86
2023/06/04 02:44:48;;;;;;;1.57;1.30;;;;;;;8.59;61.76;101390.31;5013417;28;20207;-84
2023/06/04 02:47:15;;;;;;;1.50;1.30;;;;;;;8.51;61.71;101378.28;5014631;28;20211;-84
2023/06/04 02:49:43;;;;;;;3.17;1.50;;;;;;;8.42;62.21;101382.19;5014686;28;20318;-84
2023/06/04 02:52:10;;;;;;;1.33;1.20;;;;;;;8.37;62.22;101381.53;5013486;28;20249;-85
2023/06/04 02:54:37;;;;;;;2.07;1.37;;;;;;;8.30;63.17;101390.66;5013598;28;20211;-85
2023/06/04 02:57:04;;;;;;;1.93;1.27;;;;;;;8.22;63.41;101384.81;5013262;28;20211;-85
2023/06/04 02:59:31;;;;;;;2.60;1.70;;;;;;;8.16;63.71;101388.59;5013781;28;20273;-84
2023/06/04 03:01:58;;;;;;;3.00;1.40;;;;;;;8.14;64.10;101390.44;5013757;28;20230;-84
2023/06/04 03:04:25;;;;;;;1.83;1.30;;;;;;;8.11;63.73;101393.22;5014477;28;20577;-84
2023/06/04 03:06:57;;;;;;;2.00;1.53;;;;;;;8.06;64.25;101397.84;5013914;28;20207;-84
2023/06/04 03:09:24;;;;;;;3.27;1.63;;;;;;;7.98;64.38;101397.31;5013144;28;20219;-84
2023/06/04 03:11:50;;;;;;;2.73;1.63;;;;;;;7.94;65.36;101393.91;5012928;28;20262;-85
2023/06/04 03:14:17;;;;;;;2.50;1.53;;;;;;;7.92;65.98;101390.44;5012585;28;20206;-85
2023/06/04 03:16:44;;;;;;;1.93;1.67;;;;;;;7.90;65.60;101391.44;5013182;28;20203;-85
2023/06/04 03:19:11;;;;;;;2.80;2.03;;;;;;;7.84;65.16;101391.69;5013865;28;20207;-85
2023/06/04 03:21:39;;;;;;;3.17;1.87;;;;;;;7.77;65.53;101390.19;5014627;28;20826;-85
2023/06/04 03:24:07;;;;;;;2.80;1.80;;;;;;;7.73;66.50;101392.09;5013174;28;20210;-84
2023/06/04 03:26:34;;;;;;;2.03;1.63;;;;;;;7.73;66.02;101388.59;5013955;28;20199;-85
2023/06/04 03:29:00;;;;;;;2.33;1.70;;;;;;;7.69;66.67;101394.97;5013878;28;20207;-84
2023/06/04 03:31:27;;;;;;;3.90;1.80;;;;;;;7.65;66.62;101388.91;5014426;28;20573;-85
2023/06/04 03:33:53;;;;;;;3.47;1.77;;;;;;;7.61;66.69;101390.81;5017567;28;20210;-84
2023/06/04 03:36:20;;;;;;;3.20;1.77;;;;;;;7.60;67.42;101389.09;5018876;28;20207;-85
2023/06/04 03:38:47;;;;;;;2.20;1.50;;;;;;;7.61;67.51;101395.25;5017666;28;20211;-84
2023/06/04 03:41:15;;;;;;;2.67;2.10;;;;;;;7.60;67.75;101391.72;5017256;28;20199;-86
2023/06/04 03:43:41;;;;;;;3.00;1.50;;;;;;;7.62;68.09;101397.84;5016991;28;20290;-86
2023/06/04 03:46:08;;;;;;;2.07;1.50;;;;;;;7.61;68.14;101396.13;5017204;28;20293;-84
2023/06/04 03:48:35;;;;;;;3.40;1.70;;;;;;;7.59;68.00;101397.09;5017213;28;20203;-84
2023/06/04 03:51:02;;;;;;;2.33;1.90;;;;;;;7.59;68.44;101395.31;5017387;28;20227;-84
2023/06/04 03:53:28;;;;;;;2.37;1.97;;;;;;;7.57;69.14;101405.09;5016570;28;20206;-85
2023/06/04 03:55:55;;;;;;;2.37;1.57;;;;;;;7.56;69.38;101408.69;5015333;28;20207;-85
2023/06/04 03:58:23;;;;;;;2.87;1.90;;;;;;;7.57;69.63;101410.41;5015072;28;20260;-85
2023/06/04 04:00:50;;;;;;;3.70;1.70;;;;;;;7.57;69.05;101405.09;5015293;28;20758;-85
2023/06/04 04:03:17;;;;;;;2.43;1.60;;;;;;;7.54;68.88;101404.34;5015008;28;20219;-86
2023/06/04 04:05:44;;;;;;;1.80;1.40;;;;;;;7.56;69.28;101397.22;5015479;28;20203;-85
2023/06/04 04:08:10;;;;;;;3.70;1.57;;;;;;;7.52;69.84;101407.09;5016213;28;20721;-86
2023/06/04 04:10:37;;;;;;;2.50;2.00;;;;;;;7.50;70.06;101408.94;5016357;28;20294;-85
2023/06/04 04:13:03;;;;;;;1.70;1.57;;;;;;;7.49;69.59;101409.84;5015474;28;20231;-85
2023/06/04 04:15:31;;;;;;;3.53;2.20;;;;;;;7.50;70.69;101405.41;5015496;28;20249;-84
2023/06/04 04:17:58;;;;;;;3.77;1.57;;;;;;;7.49;70.85;101407.22;5015305;28;20233;-84
2023/06/04 04:20:25;;;;;;;2.83;1.90;;;;;;;7.51;71.33;101415.97;5015386;28;20207;-84
2023/06/04 04:22:52;;;;;;;2.53;2.00;;;;;;;7.52;71.36;101414.19;5015334;28;20238;-84
2023/06/04 04:25:19;;;;;;;2.40;1.60;;;;;;;7.54;71.03;101409.66;5016426;28;20242;-84
2023/06/04 04:27:48;;;;;;;2.27;1.73;;;;;;;7.56;71.17;101411.31;5016357;28;20207;-84
2023/06/04 04:30:16;;;;;;;2.03;1.70;;;;;;;7.56;71.51;101408.69;5014779;28;20234;-84
2023/06/04 04:32:48;;;;;;;2.67;2.00;;;;;;;7.58;72.08;101409.47;5014564;28;20231;-84
2023/06/04 04:35:18;;;;;;;1.70;1.60;;;;;;;7.61;72.34;101412.03;5015396;28;20245;-84
2023/06/04 04:37:44;;;;;;;2.87;1.77;;;;;;;7.65;72.58;101408.34;5014981;28;20207;-85
2023/06/04 04:40:11;;;;;;;2.00;1.63;;;;;;;7.70;73.37;101413.47;5015038;28;20207;-84
2023/06/04 04:42:38;;;;;;;2.17;1.77;;;;;;;7.73;73.13;101415.09;5016113;28;20265;-84
2023/06/04 04:45:05;;;;;;;2.13;1.93;;;;;;;7.78;72.87;101410.50;5015688;28;20211;-84
2023/06/04 04:47:32;;;;;;;2.63;1.80;;;;;;;7.82;73.60;101410.31;5014868;28;20234;-85
2023/06/04 04:50:00;;;;;;;3.43;1.90;;;;;;;7.90;73.51;101423.25;5015325;28;20213;-84
2023/06/04 04:52:27;;;;;;;2.77;2.00;;;;;;;7.94;74.26;101414.25;5014886;28;20322;-84
2023/06/04 04:54:55;;;;;;;4.10;2.30;;;;;;;8.01;74.60;101421.91;5015488;28;20309;-84
2023/06/04 04:57:22;;;;;;;3.80;1.87;;;;;;;8.09;75.57;101418.94;5016025;28;20211;-84
2023/06/04 04:59:49;;;;;;;2.33;2.07;;;;;;;8.18;75.73;101420.38;5016145;28;20211;-84
2023/06/04 05:02:16;;;;;;;2.37;1.83;;;;;;;8.26;75.32;101419.09;5015046;28;20310;-85
2023/06/04 05:04:42;;;;;;;3.73;2.57;;;;;;;8.33;75.18;101414.44;5012100;28;20210;-86
2023/06/04 05:07:10;;;;;;;3.87;1.83;;;;;;;8.43;74.78;101417.56;4996578;28;20207;-86
2023/06/04 05:09:36;;;;;;;3.37;2.03;;;;;;;8.53;73.89;101418.91;5019612;28;20202;-86
2023/06/04 05:12:03;;;;;;;3.00;2.30;;;;;;;8.63;74.35;101420.25;5009503;28;20238;-86
2023/06/04 05:14:30;;;;;;;3.43;2.37;;;;;;;8.77;74.71;101423.19;5010342;28;20207;-87
2023/06/04 05:16:57;;;;;;;3.63;2.23;;;;;;;8.90;74.48;101421.72;5004566;28;20215;-87
2023/06/04 05:19:23;;;;;;;2.47;2.27;;;;;;;9.03;73.59;101430.84;4999533;28;20289;-86
2023/06/04 05:21:50;;;;;;;2.10;1.70;;;;;;;9.14;71.52;101426.84;5008377;28;20231;-86
2023/06/04 05:24:18;;;;;;;2.93;2.03;;;;;;;9.26;71.23;101431.63;5006170;28;20206;-86
2023/06/04 05:26:45;;;;;;;2.40;1.83;;;;;;;9.39;70.04;101432.78;5011666;28;20218;-86
2023/06/04 05:29:11;;;;;;;2.40;2.03;;;;;;;9.53;70.28;101435.66;5007881;28;20214;-86
2023/06/04 05:31:39;;;;;;;3.73;2.03;;;;;;;9.67;69.76;101430.53;5011346;28;20230;-87
2023/06/04 05:34:06;;;;;;;3.10;2.00;;;;;;;9.85;69.19;101435.97;5002091;28;20210;-85
2023/06/04 05:36:32;;;;;;;2.60;1.83;;;;;;;10.00;67.69;101428.09;5001679;28;20237;-85
2023/06/04 05:38:59;;;;;;;4.23;2.07;;;;;;;10.18;67.48;101428.13;5001114;28;20206;-85
2023/06/04 05:41:27;;;;;;;1.90;1.80;;;;;;;10.34;66.64;101427.34;5004794;28;20729;-86
2023/06/04 05:43:54;;;;;;;2.83;1.90;;;;;;;10.54;66.38;101433.44;5006293;28;20237;-85
2023/06/04 05:46:21;;;;;;;3.60;1.77;;;;;;;10.72;65.92;101433.38;5006473;28;20208;-85
2023/06/04 05:48:48;;;;;;;3.40;2.00;;;;;;;10.95;66.13;101426.84;5013613;28;20208;-86
2023/06/04 05:51:14;;;;;;;2.70;1.87;;;;;;;11.17;64.94;101426.56;5013836;28;20708;-86
2023/06/04 05:53:41;;;;;;;3.17;1.70;;;;;;;11.35;63.78;101432.72;5002843;28;20579;-87
2023/06/04 05:56:08;;;;;;;2.50;1.77;;;;;;;11.57;62.79;101427.94;5013849;28;20260;-86
2023/06/04 05:58:36;;;;;;;3.10;2.00;;;;;;;11.76;61.85;101426.00;5006021;28;20215;-87
2023/06/04 06:01:03;;;;;;;2.57;1.90;;;;;;;11.97;60.88;101431.09;5003757;28;20734;-85
2023/06/04 06:03:29;;;;;;;2.50;1.70;;;;;;;12.13;60.29;101429.25;5006992;28;20203;-86
2023/06/04 06:05:57;;;;;;;3.80;1.70;;;;;;;12.30;59.94;101430.94;5007036;28;20216;-86
2023/06/04 06:08:23;;;;;;;3.90;2.00;;;;;;;12.48;59.10;101437.91;5009389;28;20268;-86
2023/06/04 06:10:50;;;;;;;3.60;2.00;;;;;;;12.63;58.65;101434.31;5006124;28;20231;-85
2023/06/04 06:13:16;;;;;;;2.80;2.07;;;;;;;12.83;58.38;101439.34;4999533;28;20229;-86
2023/06/04 06:15:44;;;;;;;3.53;2.00;;;;;;;13.04;58.34;101434.50;5002831;28;20229;-86
2023/06/04 06:18:10;;;;;;;2.80;2.00;;;;;;;13.24;57.42;101435.13;5004389;28;20210;-86
2023/06/04 06:20:37;;;;;;;1.83;1.57;;;;;;;13.45;56.77;101433.75;5012653;28;20210;-85
2023/06/04 06:23:07;;;;;;;2.03;1.60;;;;;;;13.62;54.93;101433.56;5007757;28;20237;-87
2023/06/04 06:25:33;;;;;;;2.40;2.00;;;;;;;13.83;54.86;101434.88;5006402;28;20227;-86
2023/06/04 06:28:00;;;;;;;2.43;1.50;;;;;;;14.05;54.51;101439.69;5005552;28;20207;-87
2023/06/04 06:30:27;;;;;;;1.90;1.70;;;;;;;14.27;54.50;101444.50;5008333;28;20217;-86
2023/06/04 06:32:55;;;;;;;2.60;1.73;;;;;;;14.46;52.87;101439.69;5013235;28;20410;-87
2023/06/04 06:35:21;;;;;;;2.63;1.50;;;;;;;14.64;51.87;101448.28;5006197;28;20215;-86
2023/06/04 06:37:48;;;;;;;2.73;1.50;;;;;;;14.80;50.95;101448.13;5006746;28;20207;-86
2023/06/04 06:40:14;;;;;;;2.13;1.63;;;;;;;14.95;50.73;101449.75;5005488;28;20200;-87
2023/06/04 06:42:41;;;;;;;2.93;1.77;;;;;;;15.13;50.76;101456.50;5008593;28;20239;-87
2023/06/04 06:45:08;;;;;;;2.37;1.40;;;;;;;15.33;50.20;101462.31;5006970;28;20214;-87
2023/06/04 06:47:34;;;;;;;2.20;1.67;;;;;;;15.46;49.76;101466.69;5007186;28;20203;-85
2023/06/04 06:50:02;;;;;;;3.03;1.73;;;;;;;15.56;48.40;101458.91;5004860;28;20726;-86
2023/06/04 06:52:30;;;;;;;3.83;1.77;;;;;;;15.69;48.44;101462.41;5002856;28;20707;-86
2023/06/04 06:54:57;;;;;;;2.60;1.63;;;;;;;15.81;48.19;101456.16;5009705;28;20205;-86
2023/06/04 06:57:23;;;;;;;2.37;1.37;;;;;;;15.97;47.74;101456.75;5009346;28;20212;-86
2023/06/04 06:59:51;;;;;;;1.83;1.30;;;;;;;16.15;47.50;101456.38;5003692;28;20219;-86
2023/06/04 07:02:18;;;;;;;3.53;1.47;;;;;;;16.36;47.06;101459.28;5004618;28;20235;-87
2023/06/04 07:04:44;;;;;;;2.47;1.70;;;;;;;16.52;45.78;101459.84;5006175;28;20217;-87
2023/06/04 07:07:12;;;;;;;2.43;1.50;;;;;;;16.70;46.04;101463.00;5005923;28;20206;-87
2023/06/04 07:09:39;;;;;;;3.90;1.73;;;;;;;16.85;45.40;101462.69;5009541;28;20210;-87
2023/06/04 07:12:06;;;;;;;3.00;1.40;;;;;;;17.00;45.22;101456.16;5017334;28;20226;-87
2023/06/04 07:14:33;;;;;;;1.77;1.40;;;;;;;17.16;45.04;101463.91;5005939;28;20645;-87
2023/06/04 07:16:59;;;;;;;3.97;1.73;;;;;;;17.31;44.62;101460.00;5012725;28;20676;-87
2023/06/04 07:19:26;;;;;;;1.70;1.57;;;;;;;17.45;45.00;101460.72;5018142;28;20598;-86
2023/06/04 07:21:55;;;;;;;2.80;1.50;;;;;;;17.59;44.59;101453.25;5012926;28;20219;-87
2023/06/04 07:24:23;;;;;;;2.43;1.60;;;;;;;17.75;44.21;101447.53;5006603;28;20281;-86
2023/06/04 07:26:50;;;;;;;2.23;1.40;;;;;;;17.90;44.27;101442.75;5016645;28;20667;-87
2023/06/04 07:29:17;;;;;;;3.23;1.40;;;;;;;18.09;44.00;101445.66;5010332;28;20217;-85
2023/06/04 07:31:43;;;;;;;2.63;1.57;;;;;;;18.25;43.78;101445.25;5013467;28;20269;-87
2023/06/04 07:34:10;;;;;;;2.63;1.33;;;;;;;18.39;43.39;101448.50;5012066;28;20205;-86
2023/06/04 07:36:36;;;;;;;3.73;1.50;;;;;;;18.54;43.39;101440.09;5012886;28;20230;-86
2023/06/04 07:39:04;;;;;;;2.67;1.50;;;;;;;18.72;43.10;101441.28;5008908;28;20204;-87
2023/06/04 07:41:32;;;;;;;1.97;1.50;;;;;;;18.85;42.63;101444.63;5003021;28;20237;-87
2023/06/04 07:43:58;;;;;;;2.47;1.90;;;;;;;18.99;42.36;101447.00;5014036;28;20573;-87
2023/06/04 07:46:25;;;;;;;1.87;1.60;;;;;;;19.11;41.72;101447.81;5010557;28;20214;-87
2023/06/04 07:48:51;;;;;;;2.50;1.50;;;;;;;19.17;41.99;101447.25;5009916;28;20204;-86
2023/06/04 07:51:19;;;;;;;3.90;1.50;;;;;;;19.31;41.97;101452.34;5001657;28;20229;-86
2023/06/04 07:53:45;;;;;;;2.33;1.50;;;;;;;19.49;41.56;101449.88;5006964;28;20912;-86
2023/06/04 07:56:12;;;;;;;3.47;1.80;;;;;;;19.67;40.15;101452.81;5017414;28;20213;-86
2023/06/04 07:58:40;;;;;;;2.40;1.87;;;;;;;19.77;38.94;101448.28;5012440;28;20220;-86
2023/06/04 08:01:07;;;;;;;3.13;1.70;;;;;;;19.89;38.59;101449.88;5001302;28;20600;-86
2023/06/04 08:03:35;;;;;;;3.23;1.87;;;;;;;20.01;38.25;101450.66;5010069;28;20259;-86
2023/06/04 08:06:02;;;;;;;3.27;2.00;;;;;;;20.09;38.35;101448.09;4999484;28;20205;-86
2023/06/04 08:08:28;;;;;;;2.40;1.70;;;;;;;20.17;38.62;101450.97;5017964;28;20218;-87
2023/06/04 08:10:55;;;;;;;2.23;1.50;;;;;;;20.30;39.74;101456.09;5009645;28;20210;-87
2023/06/04 08:13:21;;;;;;;3.25;1.58;;;;;;;20.45;39.13;101452.88;5003018;28;20236;-87
2023/06/04 08:15:49;;;;;;;2.88;1.42;;;;;;;20.61;38.84;101454.16;5009307;28;20667;-86
2023/06/04 08:18:16;;;;;;;1.88;1.40;;;;;;;20.73;38.74;101455.75;5007356;28;20622;-85
2023/06/04 08:20:42;;;;;;;1.80;1.42;;;;;;;20.86;38.14;101450.00;5012138;28;20212;-86
2023/06/04 08:23:09;;;;;;;2.17;1.40;;;;;;;20.98;38.08;101452.41;5010211;28;20214;-86
2023/06/04 08:25:35;;;;;;;1.92;1.50;;;;;;;21.07;37.36;101456.13;5011618;28;20207;-86
2023/06/04 08:28:02;;;;;;;2.90;1.40;;;;;;;21.20;37.49;101453.97;5012543;28;20210;-86
2023/06/04 08:30:29;;;;;;;2.33;1.52;;;;;;;21.34;37.04;101447.22;5013278;28;20241;-86
2023/06/04 08:32:57;;;;;;;2.20;1.55;;;;;;;21.44;36.22;101448.94;5009650;28;20227;-87
2023/06/04 08:35:23;;;;;;;2.47;1.30;;;;;;;21.54;36.59;101453.44;5005011;28;20222;-88
2023/06/04 08:37:50;;;;;;;2.72;1.80;;;;;;;21.63;35.61;101453.41;5009891;28;20656;-86
2023/06/04 08:40:17;;;;;;;2.35;1.40;;;;;;;21.73;35.81;101461.50;5022155;28;20674;-89
2023/06/04 08:42:45;;;;;;;3.53;1.30;;;;;;;21.84;35.15;101464.03;5010730;28;20317;-87
2023/06/04 08:45:13;;;;;;;2.70;1.15;;;;;;;21.92;34.52;101464.13;5005536;28;20297;-87
2023/06/04 08:47:44;;;;;;;5.47;1.67;;;;;;;21.96;34.08;101468.25;5009917;28;20583;-88
2023/06/04 08:50:14;;;;;;;2.55;1.50;;;;;;;22.04;33.98;101459.34;5004580;28;20859;-87
2023/06/04 08:52:41;;;;;;;2.08;1.40;;;;;;;22.15;34.04;101464.59;5015404;28;20230;-87
2023/06/04 08:55:09;;;;;;;1.90;1.15;;;;;;;22.28;33.83;101459.66;4998023;28;20203;-86
2023/06/04 08:57:36;;;;;;;1.00;0.90;;;;;;;22.38;32.99;101465.03;5005878;28;20211;-86
2023/06/04 09:00:04;;;;;;;2.28;0.90;;;;;;;22.43;32.23;101460.81;5016077;28;20865;-85
2023/06/04 09:02:31;;;;;;;2.83;0.90;;;;;;;22.50;32.11;101463.78;5009671;28;20250;-86
2023/06/04 09:04:58;;;;;;;2.55;1.30;;;;;;;22.58;32.34;101460.28;5003586;28;20203;-86
2023/06/04 09:07:26;;;;;;;1.00;0.90;;;;;;;22.69;32.17;101458.19;5010133;28;20214;-86
2023/06/04 09:09:53;;;;;;;2.75;1.33;;;;;;;22.81;32.48;101456.09;4998018;28;20204;-85
2023/06/04 09:12:24;;;;;;;1.30;1.00;;;;;;;22.89;32.12;101453.47;5007282;28;20647;-86
2023/06/04 09:14:51;;;;;;;2.13;1.15;;;;;;;22.94;31.12;101447.53;5011713;28;20199;-86
2023/06/04 09:17:22;;;;;;;2.80;1.33;;;;;;;22.96;30.91;101456.38;5012487;28;20256;-85
2023/06/04 09:19:48;;;;;;;1.67;0.90;;;;;;;22.97;31.14;101453.53;5010046;28;20219;-85
2023/06/04 09:22:15;;;;;;;1.48;1.23;;;;;;;23.00;31.13;101453.22;5008152;28;20690;-85
2023/06/04 09:24:46;;;;;;;2.92;1.45;;;;;;;23.06;30.82;101459.88;5007341;28;20210;-86
2023/06/04 09:27:13;;;;;;;1.77;1.13;;;;;;;23.10;31.22;101455.84;5005912;28;20202;-85
2023/06/04 09:29:40;;;;;;;2.08;1.00;;;;;;;23.16;31.40;101453.31;4996338;28;20215;-87
2023/06/04 09:32:06;;;;;;;2.80;1.10;;;;;;;23.27;31.19;101449.50;5005531;28;20246;-89
2023/06/04 09:34:33;;;;;;;1.85;0.90;;;;;;;23.34;30.78;101446.97;4999451;28;20690;-87
2023/06/04 09:36:59;;;;;;;1.23;0.95;;;;;;;23.42;30.72;101450.63;5014507;28;20207;-88
2023/06/04 09:39:26;;;;;;;1.83;0.95;;;;;;;23.48;29.14;101452.66;5003440;28;20213;-87
2023/06/04 09:42:01;;;;;;;5.57;1.20;;;;;;;23.56;28.89;101451.91;5008263;28;20222;-87
2023/06/04 09:44:28;;;;;;;2.90;1.10;;;;;;;23.68;28.51;101450.59;5007273;28;20294;-87
2023/06/04 09:46:55;;;;;;;2.00;1.02;;;;;;;23.75;27.98;101450.81;4997727;28;20215;-87
2023/06/04 09:49:22;;;;;;;2.47;0.90;;;;;;;23.85;28.55;101446.06;5004065;28;20200;-87
2023/06/04 09:51:49;;;;;;;2.75;0.85;;;;;;;23.96;28.94;101445.78;5007132;28;20244;-86
2023/06/04 09:54:16;;;;;;;1.45;0.90;;;;;;;23.98;28.24;101445.63;5002717;28;20285;-87
2023/06/04 09:56:43;;;;;;;1.75;1.00;;;;;;;23.94;28.62;101446.97;5009307;28;20207;-87
2023/06/04 09:59:13;;;;;;;1.63;0.82;;;;;;;23.83;26.72;101458.97;5000815;28;20729;-87
2023/06/04 10:01:41;;;;;;;3.97;1.30;;;;;;;23.75;27.36;101448.09;5011145;28;20227;-86
2023/06/04 10:04:11;;;;;;;2.45;0.90;;;;;;;23.78;27.28;101445.03;5014383;28;20225;-89
2023/06/04 10:06:40;;;;;;;2.28;0.90;;;;;;;23.80;26.96;101451.19;5002776;28;20245;-87
2023/06/04 10:09:08;;;;;;;4.97;1.67;;;;;;;23.82;27.92;101451.88;5012629;28;20214;-87
2023/06/04 10:11:38;;;;;;;1.98;1.10;;;;;;;23.89;28.05;101450.19;5012166;28;20287;-87
2023/06/04 10:14:12;;;;;;;1.52;1.05;;;;;;;23.93;27.46;101442.53;5013615;28;20218;-87
2023/06/04 10:16:40;;;;;;;3.80;1.20;;;;;;;24.01;27.28;101434.38;5013581;28;20187;-88
2023/06/04 10:19:08;;;;;;;1.48;1.20;;;;;;;24.07;28.40;101445.47;5012031;28;20218;-87
2023/06/04 10:21:36;;;;;;;1.90;1.00;;;;;;;24.18;28.43;101447.06;5012536;28;20706;-87
2023/06/04 10:24:02;;;;;;;1.02;0.80;;;;;;;24.19;27.94;101443.28;5011943;28;20221;-87
2023/06/04 10:26:29;;;;;;;2.38;1.10;;;;;;;24.19;27.89;101451.44;5012401;28;20294;-88
2023/06/04 10:28:57;;;;;;;2.45;1.00;;;;;;;24.21;28.01;101457.59;5012494;28;20213;-87
2023/06/04 10:31:25;;;;;;;2.35;1.08;;;;;;;24.26;27.02;101448.97;5014278;28;20186;-87
2023/06/04 10:33:55;;;;;;;1.38;1.15;;;;;;;24.29;27.02;101441.31;5012992;28;20230;-86
2023/06/04 10:36:22;;;;;;;2.30;1.25;;;;;;;24.33;26.79;101439.97;5011599;28;20203;-87
2023/06/04 10:38:50;;;;;;;3.25;1.08;;;;;;;24.38;26.50;101443.03;5011991;28;20659;-87
2023/06/04 10:41:19;;;;;;;2.40;0.88;;;;;;;24.48;26.65;101443.72;5014642;28;20212;-89
2023/06/04 10:43:46;;;;;;;3.13;1.02;;;;;;;24.55;26.57;101452.06;5017834;28;20292;-89
2023/06/04 10:46:14;;;;;;;1.70;1.10;;;;;;;24.52;26.13;101444.25;5017345;28;20664;-89
2023/06/04 10:48:52;;;;;;;1.90;0.85;;;;;;;24.39;26.12;101442.00;5018386;28;20667;-89
2023/06/04 10:51:31;;;;;;;1.95;1.15;;;;;;;24.38;26.76;101445.75;5014004;28;20214;-86
2023/06/04 10:53:58;;;;;;;3.10;1.00;;;;;;;24.40;26.72;101449.16;5013715;28;20218;-86
2023/06/04 10:56:29;;;;;;;1.15;0.98;;;;;;;24.50;27.10;101444.44;5010891;28;20223;-87
2023/06/04 10:58:56;;;;;;;2.08;0.80;;;;;;;24.57;27.00;101444.59;5010347;28;20320;-84
2023/06/04 11:01:31;;;;;;;1.85;0.90;;;;;;;24.65;26.52;101446.47;5018084;28;20302;-85
2023/06/04 11:03:59;;;;;;;1.45;0.90;;;;;;;24.75;26.36;101450.72;5003726;28;20199;-84
2023/06/04 11:06:27;;;;;;;1.10;0.80;;;;;;;24.82;26.16;101449.03;5008421;28;20211;-86
2023/06/04 11:09:03;;;;;;;1.58;1.00;;;;;;;24.88;26.08;101434.72;4998944;28;20656;-87
2023/06/04 11:11:30;;;;;;;2.20;1.20;;;;;;;24.92;25.78;101436.06;5010135;28;20268;-85
2023/06/04 11:13:56;;;;;;;2.00;1.10;;;;;;;24.97;26.00;101435.59;5015925;28;20318;-85
2023/06/04 11:16:23;;;;;;;2.70;1.17;;;;;;;24.98;26.16;101436.44;5008497;28;20212;-85
2023/06/04 11:18:56;;;;;;;2.38;1.00;;;;;;;25.01;26.82;101438.84;5019102;28;20210;-84
2023/06/04 11:21:24;;;;;;;1.67;0.90;;;;;;;25.12;26.70;101443.91;5008644;28;20215;-85
2023/06/04 11:23:56;;;;;;;1.13;0.95;;;;;;;25.22;26.45;101439.16;5012540;28;20209;-85
2023/06/04 11:26:25;;;;;;;1.55;1.10;;;;;;;25.27;25.97;101428.56;5006949;28;20222;-85
2023/06/04 11:28:53;;;;;;;2.08;0.98;;;;;;;25.26;25.61;101422.25;5012052;28;20691;-86
2023/06/04 11:31:19;;;;;;;1.65;1.00;;;;;;;25.32;25.59;101428.88;5005907;28;20214;-85